sensor_id;sensor_type;location;lat;lon;timestamp;P1;durP1;ratioP1;P2;durP2;ratioP2
41556;SDS011;27720;51.992;5.890;2023-03-29T00:01:28;1.67;;;0.73;;
41556;SDS011;27720;51.992;5.890;2023-03-29T00:03:55;1.75;;;0.90;;
41556;SDS011;27720;51.992;5.890;2023-03-29T00:06:21;1.38;;;0.73;;
41556;SDS011;27720;51.992;5.890;2023-03-29T00:08:48;2.08;;;1.10;;
41556;SDS011;27720;51.992;5.890;2023-03-29T00:11:19;1.17;;;0.50;;
41556;SDS011;27720;51.992;5.890;2023-03-29T00:13:46;1.15;;;0.77;;
41556;SDS011;27720;51.992;5.890;2023-03-29T00:16:13;2.33;;;1.00;;
41556;SDS011;27720;51.992;5.890;2023-03-29T00:18:38;3.45;;;0.63;;
41556;SDS011;27720;51.992;5.890;2023-03-29T00:21:04;1.48;;;0.77;;
41556;SDS011;27720;51.992;5.890;2023-03-29T00:23:30;1.00;;;0.73;;
41556;SDS011;27720;51.992;5.890;2023-03-29T00:25:56;1.27;;;0.70;;
41556;SDS011;27720;51.992;5.890;2023-03-29T00:28:25;1.60;;;0.73;;
41556;SDS011;27720;51.992;5.890;2023-03-29T00:30:52;1.75;;;0.70;;
41556;SDS011;27720;51.992;5.890;2023-03-29T00:33:18;2.58;;;1.27;;
41556;SDS011;27720;51.992;5.890;2023-03-29T00:35:45;1.02;;;0.70;;
41556;SDS011;27720;51.992;5.890;2023-03-29T00:38:13;1.73;;;0.70;;
41556;SDS011;27720;51.992;5.890;2023-03-29T00:40:41;2.90;;;0.98;;
41556;SDS011;27720;51.992;5.890;2023-03-29T00:43:11;0.98;;;0.70;;
41556;SDS011;27720;51.992;5.890;2023-03-29T00:45:39;1.55;;;0.85;;
41556;SDS011;27720;51.992;5.890;2023-03-29T00:48:09;1.60;;;0.77;;
41556;SDS011;27720;51.992;5.890;2023-03-29T00:50:38;1.20;;;0.75;;
41556;SDS011;27720;51.992;5.890;2023-03-29T00:53:13;3.13;;;1.10;;
41556;SDS011;27720;51.992;5.890;2023-03-29T00:56:00;3.13;;;1.10;;
41556;SDS011;27720;51.992;5.890;2023-03-29T00:58:34;1.98;;;0.80;;
41556;SDS011;27720;51.992;5.890;2023-03-29T01:01:04;3.65;;;0.80;;
41556;SDS011;27720;51.992;5.890;2023-03-29T01:03:36;1.52;;;0.70;;
41556;SDS011;27720;51.992;5.890;2023-03-29T01:06:10;2.00;;;1.02;;
41556;SDS011;27720;51.992;5.890;2023-03-29T01:08:42;5.40;;;0.93;;
41556;SDS011;27720;51.992;5.890;2023-03-29T01:11:22;1.70;;;0.90;;
41556;SDS011;27720;51.992;5.890;2023-03-29T01:13:55;1.23;;;0.80;;
41556;SDS011;27720;51.992;5.890;2023-03-29T01:16:26;3.83;;;1.20;;
41556;SDS011;27720;51.992;5.890;2023-03-29T01:18:58;1.48;;;0.85;;
41556;SDS011;27720;51.992;5.890;2023-03-29T01:24:36;1.10;;;0.68;;
41556;SDS011;27720;51.992;5.890;2023-03-29T01:27:13;1.10;;;0.63;;
41556;SDS011;27720;51.992;5.890;2023-03-29T01:29:47;1.33;;;0.70;;
41556;SDS011;27720;51.992;5.890;2023-03-29T01:32:32;1.98;;;1.60;;
41556;SDS011;27720;51.992;5.890;2023-03-29T01:35:14;0.95;;;0.73;;
41556;SDS011;27720;51.992;5.890;2023-03-29T01:40:38;1.10;;;0.80;;
41556;SDS011;27720;51.992;5.890;2023-03-29T01:45:35;2.47;;;0.70;;
41556;SDS011;27720;51.992;5.890;2023-03-29T01:48:13;1.75;;;0.77;;
41556;SDS011;27720;51.992;5.890;2023-03-29T01:50:50;1.70;;;0.70;;
41556;SDS011;27720;51.992;5.890;2023-03-29T01:53:35;1.25;;;0.80;;
41556;SDS011;27720;51.992;5.890;2023-03-29T01:56:12;1.98;;;0.90;;
41556;SDS011;27720;51.992;5.890;2023-03-29T01:58:50;1.20;;;0.70;;
41556;SDS011;27720;51.992;5.890;2023-03-29T02:01:20;1.75;;;0.70;;
41556;SDS011;27720;51.992;5.890;2023-03-29T02:03:51;2.05;;;0.98;;
41556;SDS011;27720;51.992;5.890;2023-03-29T02:06:20;0.63;;;0.60;;
41556;SDS011;27720;51.992;5.890;2023-03-29T02:08:49;2.08;;;0.82;;
41556;SDS011;27720;51.992;5.890;2023-03-29T02:11:17;1.67;;;0.88;;
41556;SDS011;27720;51.992;5.890;2023-03-29T02:13:43;0.93;;;0.80;;
41556;SDS011;27720;51.992;5.890;2023-03-29T02:16:10;1.52;;;0.82;;
41556;SDS011;27720;51.992;5.890;2023-03-29T02:18:41;1.90;;;0.88;;
41556;SDS011;27720;51.992;5.890;2023-03-29T02:21:10;1.73;;;0.82;;
41556;SDS011;27720;51.992;5.890;2023-03-29T02:23:45;3.35;;;0.82;;
41556;SDS011;27720;51.992;5.890;2023-03-29T02:26:15;1.63;;;1.05;;
41556;SDS011;27720;51.992;5.890;2023-03-29T02:28:41;3.83;;;1.10;;
41556;SDS011;27720;51.992;5.890;2023-03-29T02:33:55;1.95;;;1.00;;
41556;SDS011;27720;51.992;5.890;2023-03-29T02:36:31;4.00;;;0.95;;
41556;SDS011;27720;51.992;5.890;2023-03-29T02:39:04;1.50;;;0.98;;
41556;SDS011;27720;51.992;5.890;2023-03-29T02:41:32;2.80;;;0.88;;
41556;SDS011;27720;51.992;5.890;2023-03-29T02:44:00;2.55;;;1.10;;
41556;SDS011;27720;51.992;5.890;2023-03-29T02:46:28;1.33;;;0.60;;
41556;SDS011;27720;51.992;5.890;2023-03-29T02:48:55;4.30;;;1.27;;
41556;SDS011;27720;51.992;5.890;2023-03-29T02:51:27;2.15;;;1.05;;
41556;SDS011;27720;51.992;5.890;2023-03-29T02:54:06;1.92;;;1.00;;
41556;SDS011;27720;51.992;5.890;2023-03-29T02:56:41;3.10;;;1.33;;
41556;SDS011;27720;51.992;5.890;2023-03-29T02:59:07;1.35;;;1.05;;
41556;SDS011;27720;51.992;5.890;2023-03-29T03:01:33;2.42;;;1.33;;
41556;SDS011;27720;51.992;5.890;2023-03-29T03:04:01;2.65;;;1.02;;
41556;SDS011;27720;51.992;5.890;2023-03-29T03:06:28;1.85;;;1.02;;
41556;SDS011;27720;51.992;5.890;2023-03-29T03:08:54;4.43;;;1.20;;
41556;SDS011;27720;51.992;5.890;2023-03-29T03:11:20;1.10;;;0.60;;
41556;SDS011;27720;51.992;5.890;2023-03-29T03:13:46;1.73;;;1.08;;
41556;SDS011;27720;51.992;5.890;2023-03-29T03:16:12;2.10;;;0.98;;
41556;SDS011;27720;51.992;5.890;2023-03-29T03:18:39;1.35;;;1.13;;
41556;SDS011;27720;51.992;5.890;2023-03-29T03:21:06;1.73;;;1.02;;
41556;SDS011;27720;51.992;5.890;2023-03-29T03:23:31;1.67;;;0.88;;
41556;SDS011;27720;51.992;5.890;2023-03-29T03:25:57;2.20;;;0.90;;
41556;SDS011;27720;51.992;5.890;2023-03-29T03:28:23;2.10;;;1.10;;
41556;SDS011;27720;51.992;5.890;2023-03-29T03:30:51;2.10;;;1.17;;
41556;SDS011;27720;51.992;5.890;2023-03-29T03:33:38;1.83;;;1.05;;
41556;SDS011;27720;51.992;5.890;2023-03-29T03:36:23;1.17;;;0.95;;
41556;SDS011;27720;51.992;5.890;2023-03-29T03:38:51;2.45;;;1.13;;
41556;SDS011;27720;51.992;5.890;2023-03-29T03:41:18;2.17;;;1.05;;
41556;SDS011;27720;51.992;5.890;2023-03-29T03:43:44;1.75;;;1.00;;
41556;SDS011;27720;51.992;5.890;2023-03-29T03:46:13;2.03;;;0.80;;
41556;SDS011;27720;51.992;5.890;2023-03-29T03:48:41;1.98;;;0.95;;
41556;SDS011;27720;51.992;5.890;2023-03-29T03:51:20;2.45;;;1.10;;
41556;SDS011;27720;51.992;5.890;2023-03-29T03:53:51;2.03;;;0.90;;
41556;SDS011;27720;51.992;5.890;2023-03-29T03:56:42;3.20;;;1.08;;
41556;SDS011;27720;51.992;5.890;2023-03-29T03:59:21;0.90;;;0.75;;
41556;SDS011;27720;51.992;5.890;2023-03-29T04:02:13;1.48;;;1.08;;
41556;SDS011;27720;51.992;5.890;2023-03-29T04:04:41;2.47;;;1.02;;
41556;SDS011;27720;51.992;5.890;2023-03-29T04:07:11;1.33;;;0.90;;
41556;SDS011;27720;51.992;5.890;2023-03-29T04:09:58;1.95;;;1.00;;
41556;SDS011;27720;51.992;5.890;2023-03-29T04:12:43;3.58;;;1.00;;
41556;SDS011;27720;51.992;5.890;2023-03-29T04:15:08;1.80;;;1.05;;
41556;SDS011;27720;51.992;5.890;2023-03-29T04:17:40;1.60;;;0.98;;
41556;SDS011;27720;51.992;5.890;2023-03-29T04:20:17;1.10;;;0.63;;
41556;SDS011;27720;51.992;5.890;2023-03-29T04:22:43;1.67;;;0.80;;
41556;SDS011;27720;51.992;5.890;2023-03-29T04:25:10;2.15;;;0.80;;
41556;SDS011;27720;51.992;5.890;2023-03-29T04:27:44;1.30;;;0.82;;
41556;SDS011;27720;51.992;5.890;2023-03-29T04:30:25;1.52;;;0.90;;
41556;SDS011;27720;51.992;5.890;2023-03-29T04:33:08;1.48;;;0.80;;
41556;SDS011;27720;51.992;5.890;2023-03-29T04:35:36;1.83;;;1.00;;
41556;SDS011;27720;51.992;5.890;2023-03-29T04:38:02;4.35;;;1.15;;
41556;SDS011;27720;51.992;5.890;2023-03-29T04:40:28;2.58;;;1.10;;
41556;SDS011;27720;51.992;5.890;2023-03-29T04:43:09;2.53;;;0.95;;
41556;SDS011;27720;51.992;5.890;2023-03-29T04:45:39;1.63;;;0.90;;
41556;SDS011;27720;51.992;5.890;2023-03-29T04:48:13;2.65;;;1.00;;
41556;SDS011;27720;51.992;5.890;2023-03-29T04:50:44;2.10;;;1.30;;
41556;SDS011;27720;51.992;5.890;2023-03-29T04:53:11;2.00;;;1.30;;
41556;SDS011;27720;51.992;5.890;2023-03-29T04:55:37;2.47;;;1.40;;
41556;SDS011;27720;51.992;5.890;2023-03-29T04:58:06;1.63;;;0.93;;
41556;SDS011;27720;51.992;5.890;2023-03-29T05:00:33;2.35;;;1.02;;
41556;SDS011;27720;51.992;5.890;2023-03-29T05:05:49;3.42;;;1.17;;
41556;SDS011;27720;51.992;5.890;2023-03-29T05:08:15;1.38;;;0.73;;
41556;SDS011;27720;51.992;5.890;2023-03-29T05:11:07;1.50;;;1.00;;
41556;SDS011;27720;51.992;5.890;2023-03-29T05:13:35;1.50;;;0.85;;
41556;SDS011;27720;51.992;5.890;2023-03-29T05:16:01;2.45;;;0.73;;
41556;SDS011;27720;51.992;5.890;2023-03-29T05:18:28;0.82;;;0.50;;
41556;SDS011;27720;51.992;5.890;2023-03-29T05:20:55;1.83;;;1.17;;
41556;SDS011;27720;51.992;5.890;2023-03-29T05:23:22;1.75;;;1.25;;
41556;SDS011;27720;51.992;5.890;2023-03-29T05:26:07;1.17;;;0.80;;
41556;SDS011;27720;51.992;5.890;2023-03-29T05:28:34;1.35;;;0.90;;
41556;SDS011;27720;51.992;5.890;2023-03-29T05:31:03;1.27;;;0.80;;
41556;SDS011;27720;51.992;5.890;2023-03-29T05:33:30;4.78;;;1.38;;
41556;SDS011;27720;51.992;5.890;2023-03-29T05:35:57;1.50;;;1.33;;
41556;SDS011;27720;51.992;5.890;2023-03-29T05:38:28;1.45;;;0.85;;
41556;SDS011;27720;51.992;5.890;2023-03-29T05:40:54;1.27;;;0.70;;
41556;SDS011;27720;51.992;5.890;2023-03-29T05:43:43;2.92;;;0.90;;
41556;SDS011;27720;51.992;5.890;2023-03-29T05:46:09;1.95;;;0.80;;
41556;SDS011;27720;51.992;5.890;2023-03-29T05:48:40;2.45;;;0.70;;
41556;SDS011;27720;51.992;5.890;2023-03-29T05:51:07;0.93;;;0.55;;
41556;SDS011;27720;51.992;5.890;2023-03-29T05:53:33;1.83;;;0.73;;
41556;SDS011;27720;51.992;5.890;2023-03-29T05:55:59;1.30;;;0.63;;
41556;SDS011;27720;51.992;5.890;2023-03-29T05:58:28;1.77;;;0.85;;
41556;SDS011;27720;51.992;5.890;2023-03-29T06:00:57;0.85;;;0.60;;
41556;SDS011;27720;51.992;5.890;2023-03-29T06:03:43;1.48;;;0.90;;
41556;SDS011;27720;51.992;5.890;2023-03-29T06:06:13;1.10;;;0.73;;
41556;SDS011;27720;51.992;5.890;2023-03-29T06:08:41;2.08;;;0.98;;
41556;SDS011;27720;51.992;5.890;2023-03-29T06:11:36;1.52;;;0.70;;
41556;SDS011;27720;51.992;5.890;2023-03-29T06:14:07;3.25;;;0.95;;
41556;SDS011;27720;51.992;5.890;2023-03-29T06:16:38;3.30;;;0.65;;
41556;SDS011;27720;51.992;5.890;2023-03-29T06:19:04;1.30;;;0.60;;
41556;SDS011;27720;51.992;5.890;2023-03-29T06:21:31;2.10;;;0.90;;
41556;SDS011;27720;51.992;5.890;2023-03-29T06:23:58;1.45;;;0.88;;
41556;SDS011;27720;51.992;5.890;2023-03-29T06:26:39;1.40;;;0.80;;
41556;SDS011;27720;51.992;5.890;2023-03-29T06:29:04;2.15;;;1.00;;
41556;SDS011;27720;51.992;5.890;2023-03-29T06:31:31;2.20;;;1.10;;
41556;SDS011;27720;51.992;5.890;2023-03-29T06:34:00;2.45;;;1.17;;
41556;SDS011;27720;51.992;5.890;2023-03-29T06:36:49;2.15;;;1.08;;
41556;SDS011;27720;51.992;5.890;2023-03-29T06:39:18;1.52;;;0.73;;
41556;SDS011;27720;51.992;5.890;2023-03-29T06:42:10;2.55;;;1.20;;
41556;SDS011;27720;51.992;5.890;2023-03-29T06:45:02;1.92;;;1.00;;
41556;SDS011;27720;51.992;5.890;2023-03-29T06:47:28;3.50;;;1.17;;
41556;SDS011;27720;51.992;5.890;2023-03-29T06:49:55;4.07;;;1.65;;
41556;SDS011;27720;51.992;5.890;2023-03-29T06:52:44;2.03;;;1.20;;
41556;SDS011;27720;51.992;5.890;2023-03-29T06:55:17;4.30;;;1.85;;
41556;SDS011;27720;51.992;5.890;2023-03-29T06:57:53;4.43;;;1.20;;
41556;SDS011;27720;51.992;5.890;2023-03-29T07:00:20;3.05;;;1.50;;
41556;SDS011;27720;51.992;5.890;2023-03-29T07:03:15;3.90;;;1.30;;
41556;SDS011;27720;51.992;5.890;2023-03-29T07:05:49;4.63;;;1.48;;
41556;SDS011;27720;51.992;5.890;2023-03-29T07:08:17;2.90;;;1.67;;
41556;SDS011;27720;51.992;5.890;2023-03-29T07:10:54;4.20;;;2.33;;
41556;SDS011;27720;51.992;5.890;2023-03-29T07:13:28;1.95;;;1.00;;
41556;SDS011;27720;51.992;5.890;2023-03-29T07:15:56;3.63;;;1.58;;
41556;SDS011;27720;51.992;5.890;2023-03-29T07:18:32;5.93;;;1.75;;
41556;SDS011;27720;51.992;5.890;2023-03-29T07:20:58;2.72;;;1.10;;
41556;SDS011;27720;51.992;5.890;2023-03-29T07:23:24;2.70;;;1.38;;
41556;SDS011;27720;51.992;5.890;2023-03-29T07:25:50;4.80;;;1.30;;
41556;SDS011;27720;51.992;5.890;2023-03-29T07:28:17;2.05;;;1.17;;
41556;SDS011;27720;51.992;5.890;2023-03-29T07:30:42;2.45;;;1.20;;
41556;SDS011;27720;51.992;5.890;2023-03-29T07:33:16;2.63;;;1.00;;
41556;SDS011;27720;51.992;5.890;2023-03-29T07:35:58;2.50;;;1.08;;
41556;SDS011;27720;51.992;5.890;2023-03-29T07:38:26;2.67;;;1.00;;
41556;SDS011;27720;51.992;5.890;2023-03-29T07:40:58;3.42;;;1.00;;
41556;SDS011;27720;51.992;5.890;2023-03-29T07:43:41;2.25;;;1.20;;
41556;SDS011;27720;51.992;5.890;2023-03-29T07:46:10;2.92;;;1.70;;
41556;SDS011;27720;51.992;5.890;2023-03-29T07:48:37;3.25;;;1.40;;
41556;SDS011;27720;51.992;5.890;2023-03-29T07:51:06;1.98;;;1.00;;
41556;SDS011;27720;51.992;5.890;2023-03-29T07:53:40;3.35;;;1.38;;
41556;SDS011;27720;51.992;5.890;2023-03-29T07:56:21;1.23;;;0.88;;
41556;SDS011;27720;51.992;5.890;2023-03-29T07:59:00;5.63;;;1.42;;
41556;SDS011;27720;51.992;5.890;2023-03-29T08:01:26;3.42;;;1.25;;
41556;SDS011;27720;51.992;5.890;2023-03-29T08:03:55;2.80;;;1.55;;
41556;SDS011;27720;51.992;5.890;2023-03-29T08:06:31;3.08;;;1.35;;
41556;SDS011;27720;51.992;5.890;2023-03-29T08:08:58;3.20;;;1.00;;
41556;SDS011;27720;51.992;5.890;2023-03-29T08:11:24;2.78;;;1.52;;
41556;SDS011;27720;51.992;5.890;2023-03-29T08:13:55;2.60;;;1.60;;
41556;SDS011;27720;51.992;5.890;2023-03-29T08:16:58;3.40;;;1.48;;
41556;SDS011;27720;51.992;5.890;2023-03-29T08:19:24;2.83;;;1.52;;
41556;SDS011;27720;51.992;5.890;2023-03-29T08:22:03;4.55;;;2.00;;
41556;SDS011;27720;51.992;5.890;2023-03-29T08:24:52;3.90;;;1.98;;
41556;SDS011;27720;51.992;5.890;2023-03-29T08:27:34;4.43;;;1.83;;
41556;SDS011;27720;51.992;5.890;2023-03-29T08:30:01;5.22;;;1.90;;
41556;SDS011;27720;51.992;5.890;2023-03-29T08:32:31;3.08;;;1.60;;
41556;SDS011;27720;51.992;5.890;2023-03-29T08:34:58;3.92;;;2.78;;
41556;SDS011;27720;51.992;5.890;2023-03-29T08:37:34;4.10;;;1.70;;
41556;SDS011;27720;51.992;5.890;2023-03-29T08:40:00;5.35;;;1.67;;
41556;SDS011;27720;51.992;5.890;2023-03-29T08:42:41;5.30;;;2.30;;
41556;SDS011;27720;51.992;5.890;2023-03-29T08:50:31;5.13;;;1.88;;
41556;SDS011;27720;51.992;5.890;2023-03-29T08:53:03;2.63;;;1.70;;
41556;SDS011;27720;51.992;5.890;2023-03-29T08:55:54;8.38;;;2.30;;
41556;SDS011;27720;51.992;5.890;2023-03-29T08:58:41;4.13;;;2.13;;
41556;SDS011;27720;51.992;5.890;2023-03-29T09:01:09;5.38;;;2.45;;
41556;SDS011;27720;51.992;5.890;2023-03-29T09:06:43;4.78;;;2.40;;
41556;SDS011;27720;51.992;5.890;2023-03-29T09:09:18;7.40;;;2.80;;
41556;SDS011;27720;51.992;5.890;2023-03-29T09:12:16;5.38;;;2.83;;
41556;SDS011;27720;51.992;5.890;2023-03-29T09:15:15;8.82;;;3.28;;
41556;SDS011;27720;51.992;5.890;2023-03-29T09:18:22;4.93;;;2.65;;
41556;SDS011;27720;51.992;5.890;2023-03-29T09:20:58;6.40;;;2.67;;
41556;SDS011;27720;51.992;5.890;2023-03-29T09:23:51;9.00;;;2.95;;
41556;SDS011;27720;51.992;5.890;2023-03-29T09:27:17;12.57;;;4.28;;
41556;SDS011;27720;51.992;5.890;2023-03-29T09:30:19;7.22;;;3.13;;
41556;SDS011;27720;51.992;5.890;2023-03-29T09:33:16;7.68;;;2.90;;
41556;SDS011;27720;51.992;5.890;2023-03-29T09:38:50;6.30;;;3.08;;
41556;SDS011;27720;51.992;5.890;2023-03-29T09:41:21;6.95;;;2.63;;
41556;SDS011;27720;51.992;5.890;2023-03-29T09:44:07;9.05;;;2.92;;
41556;SDS011;27720;51.992;5.890;2023-03-29T09:46:38;7.82;;;3.63;;
41556;SDS011;27720;51.992;5.890;2023-03-29T09:49:08;9.02;;;4.03;;
41556;SDS011;27720;51.992;5.890;2023-03-29T09:51:38;7.45;;;3.70;;
41556;SDS011;27720;51.992;5.890;2023-03-29T09:54:07;6.45;;;3.60;;
41556;SDS011;27720;51.992;5.890;2023-03-29T09:56:59;6.07;;;2.85;;
41556;SDS011;27720;51.992;5.890;2023-03-29T09:59:25;7.07;;;3.75;;
41556;SDS011;27720;51.992;5.890;2023-03-29T10:01:50;7.25;;;4.10;;
41556;SDS011;27720;51.992;5.890;2023-03-29T10:04:17;9.52;;;4.05;;
41556;SDS011;27720;51.992;5.890;2023-03-29T10:06:49;6.80;;;3.22;;
41556;SDS011;27720;51.992;5.890;2023-03-29T10:09:20;6.50;;;3.45;;
41556;SDS011;27720;51.992;5.890;2023-03-29T10:11:53;6.28;;;2.83;;
41556;SDS011;27720;51.992;5.890;2023-03-29T10:14:29;7.03;;;2.75;;
41556;SDS011;27720;51.992;5.890;2023-03-29T10:17:04;7.32;;;3.05;;
41556;SDS011;27720;51.992;5.890;2023-03-29T10:19:36;5.72;;;2.95;;
41556;SDS011;27720;51.992;5.890;2023-03-29T10:22:14;4.88;;;2.90;;
41556;SDS011;27720;51.992;5.890;2023-03-29T10:24:50;9.00;;;3.45;;
41556;SDS011;27720;51.992;5.890;2023-03-29T10:27:21;5.60;;;2.80;;
41556;SDS011;27720;51.992;5.890;2023-03-29T10:29:50;5.93;;;2.70;;
41556;SDS011;27720;51.992;5.890;2023-03-29T10:34:46;6.13;;;3.38;;
41556;SDS011;27720;51.992;5.890;2023-03-29T10:37:15;7.93;;;3.60;;
41556;SDS011;27720;51.992;5.890;2023-03-29T10:39:43;7.32;;;3.70;;
41556;SDS011;27720;51.992;5.890;2023-03-29T10:42:14;7.30;;;3.60;;
41556;SDS011;27720;51.992;5.890;2023-03-29T10:44:42;7.72;;;4.53;;
41556;SDS011;27720;51.992;5.890;2023-03-29T10:47:17;6.45;;;3.17;;
41556;SDS011;27720;51.992;5.890;2023-03-29T10:49:52;7.78;;;3.60;;
41556;SDS011;27720;51.992;5.890;2023-03-29T10:52:19;6.15;;;3.17;;
41556;SDS011;27720;51.992;5.890;2023-03-29T10:54:46;8.85;;;3.13;;
41556;SDS011;27720;51.992;5.890;2023-03-29T10:57:20;7.82;;;3.83;;
41556;SDS011;27720;51.992;5.890;2023-03-29T11:00:13;8.45;;;4.25;;
41556;SDS011;27720;51.992;5.890;2023-03-29T11:05:53;6.18;;;3.80;;
41556;SDS011;27720;51.992;5.890;2023-03-29T11:08:47;7.05;;;3.72;;
41556;SDS011;27720;51.992;5.890;2023-03-29T11:16:56;8.73;;;3.80;;
41556;SDS011;27720;51.992;5.890;2023-03-29T11:22:40;5.85;;;2.95;;
41556;SDS011;27720;51.992;5.890;2023-03-29T11:25:22;8.63;;;3.40;;
41556;SDS011;27720;51.992;5.890;2023-03-29T11:31:12;5.55;;;2.63;;
41556;SDS011;27720;51.992;5.890;2023-03-29T11:39:27;5.57;;;2.43;;
41556;SDS011;27720;51.992;5.890;2023-03-29T11:42:04;5.10;;;2.53;;
41556;SDS011;27720;51.992;5.890;2023-03-29T11:44:43;7.60;;;3.00;;
41556;SDS011;27720;51.992;5.890;2023-03-29T11:47:16;7.28;;;3.03;;
41556;SDS011;27720;51.992;5.890;2023-03-29T11:49:49;7.03;;;3.30;;
41556;SDS011;27720;51.992;5.890;2023-03-29T11:57:37;5.57;;;3.40;;
41556;SDS011;27720;51.992;5.890;2023-03-29T12:00:24;6.65;;;2.75;;
41556;SDS011;27720;51.992;5.890;2023-03-29T12:02:57;6.13;;;3.10;;
41556;SDS011;27720;51.992;5.890;2023-03-29T12:05:48;6.50;;;3.25;;
41556;SDS011;27720;51.992;5.890;2023-03-29T12:08:19;6.32;;;3.60;;
41556;SDS011;27720;51.992;5.890;2023-03-29T12:11:13;6.55;;;2.97;;
41556;SDS011;27720;51.992;5.890;2023-03-29T12:13:58;7.47;;;4.03;;
41556;SDS011;27720;51.992;5.890;2023-03-29T12:16:48;7.35;;;3.55;;
41556;SDS011;27720;51.992;5.890;2023-03-29T12:21:46;7.18;;;4.00;;
41556;SDS011;27720;51.992;5.890;2023-03-29T12:24:15;5.18;;;2.97;;
41556;SDS011;27720;51.992;5.890;2023-03-29T12:27:06;5.70;;;2.50;;
41556;SDS011;27720;51.992;5.890;2023-03-29T12:29:53;3.88;;;2.15;;
41556;SDS011;27720;51.992;5.890;2023-03-29T12:32:41;4.55;;;2.67;;
41556;SDS011;27720;51.992;5.890;2023-03-29T12:38:49;4.68;;;2.30;;
41556;SDS011;27720;51.992;5.890;2023-03-29T12:41:35;6.72;;;3.33;;
41556;SDS011;27720;51.992;5.890;2023-03-29T12:44:05;5.68;;;3.03;;
41556;SDS011;27720;51.992;5.890;2023-03-29T12:46:40;4.57;;;2.40;;
41556;SDS011;27720;51.992;5.890;2023-03-29T12:49:12;4.30;;;2.50;;
41556;SDS011;27720;51.992;5.890;2023-03-29T12:52:00;5.68;;;2.33;;
41556;SDS011;27720;51.992;5.890;2023-03-29T12:54:31;5.22;;;3.40;;
41556;SDS011;27720;51.992;5.890;2023-03-29T12:57:01;8.65;;;3.42;;
41556;SDS011;27720;51.992;5.890;2023-03-29T12:59:45;5.15;;;3.13;;
41556;SDS011;27720;51.992;5.890;2023-03-29T13:04:59;6.45;;;3.53;;
41556;SDS011;27720;51.992;5.890;2023-03-29T13:07:30;5.55;;;2.85;;
41556;SDS011;27720;51.992;5.890;2023-03-29T13:13:07;5.75;;;3.53;;
41556;SDS011;27720;51.992;5.890;2023-03-29T13:15:39;6.20;;;3.30;;
41556;SDS011;27720;51.992;5.890;2023-03-29T13:18:26;5.38;;;2.78;;
41556;SDS011;27720;51.992;5.890;2023-03-29T13:24:16;8.77;;;5.57;;
41556;SDS011;27720;51.992;5.890;2023-03-29T13:32:43;5.15;;;2.85;;
41556;SDS011;27720;51.992;5.890;2023-03-29T13:35:33;6.32;;;3.53;;
41556;SDS011;27720;51.992;5.890;2023-03-29T13:38:20;6.30;;;3.40;;
41556;SDS011;27720;51.992;5.890;2023-03-29T13:48:23;8.45;;;4.13;;
41556;SDS011;27720;51.992;5.890;2023-03-29T13:50:53;6.07;;;3.65;;
41556;SDS011;27720;51.992;5.890;2023-03-29T13:53:28;6.87;;;3.07;;
41556;SDS011;27720;51.992;5.890;2023-03-29T13:55:59;7.88;;;3.20;;
41556;SDS011;27720;51.992;5.890;2023-03-29T14:01:54;5.30;;;2.35;;
41556;SDS011;27720;51.992;5.890;2023-03-29T14:04:03;3.90;;;2.28;;
41556;SDS011;27720;51.992;5.890;2023-03-29T14:06:32;5.38;;;2.40;;
41556;SDS011;27720;51.992;5.890;2023-03-29T14:09:04;5.25;;;2.22;;
41556;SDS011;27720;51.992;5.890;2023-03-29T14:11:33;4.93;;;2.50;;
41556;SDS011;27720;51.992;5.890;2023-03-29T14:14:01;5.95;;;3.03;;
41556;SDS011;27720;51.992;5.890;2023-03-29T14:16:33;4.47;;;2.65;;
41556;SDS011;27720;51.992;5.890;2023-03-29T14:19:02;4.75;;;2.80;;
41556;SDS011;27720;51.992;5.890;2023-03-29T14:21:40;6.00;;;2.95;;
41556;SDS011;27720;51.992;5.890;2023-03-29T14:24:09;6.45;;;3.35;;
41556;SDS011;27720;51.992;5.890;2023-03-29T14:26:45;4.40;;;2.60;;
41556;SDS011;27720;51.992;5.890;2023-03-29T14:29:12;5.25;;;3.00;;
41556;SDS011;27720;51.992;5.890;2023-03-29T14:31:38;5.72;;;3.17;;
41556;SDS011;27720;51.992;5.890;2023-03-29T14:34:09;4.25;;;2.60;;
41556;SDS011;27720;51.992;5.890;2023-03-29T14:36:45;6.28;;;3.10;;
41556;SDS011;27720;51.992;5.890;2023-03-29T14:39:21;4.82;;;3.13;;
41556;SDS011;27720;51.992;5.890;2023-03-29T14:41:48;5.00;;;3.08;;
41556;SDS011;27720;51.992;5.890;2023-03-29T14:44:21;4.13;;;2.65;;
41556;SDS011;27720;51.992;5.890;2023-03-29T14:46:54;5.18;;;2.50;;
41556;SDS011;27720;51.992;5.890;2023-03-29T14:49:20;4.47;;;2.33;;
41556;SDS011;27720;51.992;5.890;2023-03-29T14:51:47;5.38;;;2.20;;
41556;SDS011;27720;51.992;5.890;2023-03-29T14:54:21;2.83;;;1.60;;
41556;SDS011;27720;51.992;5.890;2023-03-29T14:56:50;6.65;;;2.40;;
41556;SDS011;27720;51.992;5.890;2023-03-29T14:59:36;4.78;;;2.92;;
41556;SDS011;27720;51.992;5.890;2023-03-29T15:02:05;4.30;;;2.55;;
41556;SDS011;27720;51.992;5.890;2023-03-29T15:04:57;4.20;;;2.38;;
41556;SDS011;27720;51.992;5.890;2023-03-29T15:07:27;4.85;;;2.10;;
41556;SDS011;27720;51.992;5.890;2023-03-29T15:09:54;3.85;;;2.33;;
41556;SDS011;27720;51.992;5.890;2023-03-29T15:12:21;4.10;;;2.30;;
41556;SDS011;27720;51.992;5.890;2023-03-29T15:14:47;3.78;;;2.08;;
41556;SDS011;27720;51.992;5.890;2023-03-29T15:17:25;3.05;;;2.10;;
41556;SDS011;27720;51.992;5.890;2023-03-29T15:20:06;3.75;;;1.88;;
41556;SDS011;27720;51.992;5.890;2023-03-29T15:22:39;3.70;;;1.83;;
41556;SDS011;27720;51.992;5.890;2023-03-29T15:25:16;3.55;;;2.25;;
41556;SDS011;27720;51.992;5.890;2023-03-29T15:27:43;3.60;;;2.10;;
41556;SDS011;27720;51.992;5.890;2023-03-29T15:30:18;6.53;;;2.58;;
41556;SDS011;27720;51.992;5.890;2023-03-29T15:32:44;4.93;;;2.10;;
41556;SDS011;27720;51.992;5.890;2023-03-29T15:35:20;3.08;;;1.85;;
41556;SDS011;27720;51.992;5.890;2023-03-29T15:37:49;3.35;;;1.90;;
41556;SDS011;27720;51.992;5.890;2023-03-29T15:40:17;3.55;;;1.67;;
41556;SDS011;27720;51.992;5.890;2023-03-29T15:42:46;2.88;;;1.58;;
41556;SDS011;27720;51.992;5.890;2023-03-29T15:45:15;2.72;;;1.48;;
41556;SDS011;27720;51.992;5.890;2023-03-29T15:47:42;4.57;;;1.63;;
41556;SDS011;27720;51.992;5.890;2023-03-29T15:50:09;2.13;;;1.48;;
41556;SDS011;27720;51.992;5.890;2023-03-29T15:52:35;2.65;;;1.10;;
41556;SDS011;27720;51.992;5.890;2023-03-29T15:55:02;2.05;;;1.20;;
41556;SDS011;27720;51.992;5.890;2023-03-29T15:57:28;4.25;;;1.00;;
41556;SDS011;27720;51.992;5.890;2023-03-29T15:59:54;2.85;;;1.35;;
41556;SDS011;27720;51.992;5.890;2023-03-29T16:02:22;1.77;;;0.93;;
41556;SDS011;27720;51.992;5.890;2023-03-29T16:04:49;2.38;;;1.15;;
41556;SDS011;27720;51.992;5.890;2023-03-29T16:07:15;2.60;;;1.50;;
41556;SDS011;27720;51.992;5.890;2023-03-29T16:09:43;3.90;;;1.63;;
41556;SDS011;27720;51.992;5.890;2023-03-29T16:12:10;1.88;;;1.20;;
41556;SDS011;27720;51.992;5.890;2023-03-29T16:14:36;2.38;;;1.00;;
41556;SDS011;27720;51.992;5.890;2023-03-29T16:17:03;2.85;;;1.17;;
41556;SDS011;27720;51.992;5.890;2023-03-29T16:19:30;1.90;;;1.15;;
41556;SDS011;27720;51.992;5.890;2023-03-29T16:21:56;2.63;;;1.30;;
41556;SDS011;27720;51.992;5.890;2023-03-29T16:24:24;2.53;;;1.10;;
41556;SDS011;27720;51.992;5.890;2023-03-29T16:26:55;2.10;;;1.05;;
41556;SDS011;27720;51.992;5.890;2023-03-29T16:29:21;2.10;;;1.13;;
41556;SDS011;27720;51.992;5.890;2023-03-29T16:31:48;3.22;;;1.05;;
41556;SDS011;27720;51.992;5.890;2023-03-29T16:34:14;4.10;;;1.20;;
41556;SDS011;27720;51.992;5.890;2023-03-29T16:36:42;3.35;;;1.45;;
41556;SDS011;27720;51.992;5.890;2023-03-29T16:39:12;1.35;;;0.90;;
41556;SDS011;27720;51.992;5.890;2023-03-29T16:41:38;4.22;;;1.25;;
41556;SDS011;27720;51.992;5.890;2023-03-29T16:44:04;2.17;;;1.17;;
41556;SDS011;27720;51.992;5.890;2023-03-29T16:46:30;2.38;;;1.20;;
41556;SDS011;27720;51.992;5.890;2023-03-29T16:48:56;1.48;;;0.90;;